Terminal Aerodrome Forecast
Issued by NWS Memphis, TN

Home | Current Version | Previous Version | Text Only | Print | Product List | Glossary On
Versions: 1 2 3 4 5 6 7 8 9 10 11 12 13 14 15 16 17 18 19 20 21 22 23 24 25 26 27
000
FTUS44 KMEG 262344
TAFMKL
TAF
KMKL 262344Z 2700/2724 20007KT P6SM FEW040 SCT250
     FM270800 20005KT P6SM FEW009 SCT250
     FM271300 22010KT P6SM SCT015 BKN100
     FM271900 22010KT P6SM SCT040 BKN100
     FM272100 22010KT P6SM VCTS BKN040CB OVC100=

USA.gov is the U.S. government's official web portal to all federal, state and local government web resources and services.